sensor_id;sensor_type;location;lat;lon;timestamp;temperature;humidity
20881;DHT22;10600;53.096;8.802;2024-01-25T00:00:31;8.00;99.90
20881;DHT22;10600;53.096;8.802;2024-01-25T00:01:31;8.00;99.90
20881;DHT22;10600;53.096;8.802;2024-01-25T00:02:32;8.00;99.90
20881;DHT22;10600;53.096;8.802;2024-01-25T00:03:32;8.00;99.90
20881;DHT22;10600;53.096;8.802;2024-01-25T00:04:33;8.10;99.90
20881;DHT22;10600;53.096;8.802;2024-01-25T00:05:34;8.10;99.90
20881;DHT22;10600;53.096;8.802;2024-01-25T00:06:35;8.10;99.90
20881;DHT22;10600;53.096;8.802;2024-01-25T00:07:45;8.10;99.90
20881;DHT22;10600;53.096;8.802;2024-01-25T00:08:46;8.10;99.90
20881;DHT22;10600;53.096;8.802;2024-01-25T00:09:46;8.10;99.90
20881;DHT22;10600;53.096;8.802;2024-01-25T00:10:47;8.10;99.90
20881;DHT22;10600;53.096;8.802;2024-01-25T00:11:47;8.10;99.90
20881;DHT22;10600;53.096;8.802;2024-01-25T00:12:48;8.10;99.90
20881;DHT22;10600;53.096;8.802;2024-01-25T00:13:49;8.00;99.90
20881;DHT22;10600;53.096;8.802;2024-01-25T00:14:49;8.00;99.90
20881;DHT22;10600;53.096;8.802;2024-01-25T00:15:50;8.00;99.90
20881;DHT22;10600;53.096;8.802;2024-01-25T00:16:50;8.10;99.90
20881;DHT22;10600;53.096;8.802;2024-01-25T00:17:52;8.00;99.90
20881;DHT22;10600;53.096;8.802;2024-01-25T00:18:52;8.00;99.90
20881;DHT22;10600;53.096;8.802;2024-01-25T00:19:53;8.00;99.90
20881;DHT22;10600;53.096;8.802;2024-01-25T00:20:53;8.00;99.90
20881;DHT22;10600;53.096;8.802;2024-01-25T00:21:54;8.00;99.90
20881;DHT22;10600;53.096;8.802;2024-01-25T00:22:54;8.00;99.90
20881;DHT22;10600;53.096;8.802;2024-01-25T00:23:55;8.10;99.90
20881;DHT22;10600;53.096;8.802;2024-01-25T00:24:55;8.10;99.90
20881;DHT22;10600;53.096;8.802;2024-01-25T00:25:56;8.00;99.90
20881;DHT22;10600;53.096;8.802;2024-01-25T00:26:58;8.00;99.90
20881;DHT22;10600;53.096;8.802;2024-01-25T00:27:59;8.00;99.90
20881;DHT22;10600;53.096;8.802;2024-01-25T00:28:59;8.00;99.90
20881;DHT22;10600;53.096;8.802;2024-01-25T00:30:00;8.10;99.90
20881;DHT22;10600;53.096;8.802;2024-01-25T00:31:01;8.10;99.90
20881;DHT22;10600;53.096;8.802;2024-01-25T00:32:01;8.10;99.90
20881;DHT22;10600;53.096;8.802;2024-01-25T00:33:02;8.10;99.90
20881;DHT22;10600;53.096;8.802;2024-01-25T00:34:03;8.10;99.90
20881;DHT22;10600;53.096;8.802;2024-01-25T00:35:04;8.10;99.90
20881;DHT22;10600;53.096;8.802;2024-01-25T00:36:05;8.10;99.90
20881;DHT22;10600;53.096;8.802;2024-01-25T00:37:06;8.00;99.90
20881;DHT22;10600;53.096;8.802;2024-01-25T00:38:09;8.00;99.90
20881;DHT22;10600;53.096;8.802;2024-01-25T00:39:10;8.00;99.90
20881;DHT22;10600;53.096;8.802;2024-01-25T00:40:11;8.00;99.90
20881;DHT22;10600;53.096;8.802;2024-01-25T00:41:17;8.00;99.90
20881;DHT22;10600;53.096;8.802;2024-01-25T00:42:21;8.00;99.90
20881;DHT22;10600;53.096;8.802;2024-01-25T00:43:22;7.90;99.90
20881;DHT22;10600;53.096;8.802;2024-01-25T00:44:23;7.90;99.90
20881;DHT22;10600;53.096;8.802;2024-01-25T00:45:24;7.90;99.90
20881;DHT22;10600;53.096;8.802;2024-01-25T00:46:25;7.90;99.90
20881;DHT22;10600;53.096;8.802;2024-01-25T00:47:26;7.90;99.90
20881;DHT22;10600;53.096;8.802;2024-01-25T00:48:26;7.90;99.90
20881;DHT22;10600;53.096;8.802;2024-01-25T00:49:27;7.80;99.90
20881;DHT22;10600;53.096;8.802;2024-01-25T00:50:28;7.80;99.90
20881;DHT22;10600;53.096;8.802;2024-01-25T00:51:29;7.80;99.90
20881;DHT22;10600;53.096;8.802;2024-01-25T00:52:30;7.70;99.90
20881;DHT22;10600;53.096;8.802;2024-01-25T00:53:31;7.70;99.90
20881;DHT22;10600;53.096;8.802;2024-01-25T00:54:33;7.70;99.90
20881;DHT22;10600;53.096;8.802;2024-01-25T00:55:34;7.70;99.90
20881;DHT22;10600;53.096;8.802;2024-01-25T00:56:35;7.60;99.90
20881;DHT22;10600;53.096;8.802;2024-01-25T00:57:35;7.60;99.90
20881;DHT22;10600;53.096;8.802;2024-01-25T00:58:36;7.60;99.90
20881;DHT22;10600;53.096;8.802;2024-01-25T00:59:37;7.50;99.90
20881;DHT22;10600;53.096;8.802;2024-01-25T01:00:38;7.50;99.90
20881;DHT22;10600;53.096;8.802;2024-01-25T01:01:39;7.50;99.90
20881;DHT22;10600;53.096;8.802;2024-01-25T01:02:44;7.50;99.90
20881;DHT22;10600;53.096;8.802;2024-01-25T01:03:45;7.50;99.90
20881;DHT22;10600;53.096;8.802;2024-01-25T01:04:52;7.40;99.90
20881;DHT22;10600;53.096;8.802;2024-01-25T01:05:53;7.40;99.90
20881;DHT22;10600;53.096;8.802;2024-01-25T01:06:54;7.40;99.90
20881;DHT22;10600;53.096;8.802;2024-01-25T01:07:55;7.40;99.90
20881;DHT22;10600;53.096;8.802;2024-01-25T01:08:55;7.30;99.90
20881;DHT22;10600;53.096;8.802;2024-01-25T01:09:56;7.40;99.90
20881;DHT22;10600;53.096;8.802;2024-01-25T01:10:57;7.30;99.90
20881;DHT22;10600;53.096;8.802;2024-01-25T01:11:58;7.30;99.90
20881;DHT22;10600;53.096;8.802;2024-01-25T01:12:58;7.30;99.90
20881;DHT22;10600;53.096;8.802;2024-01-25T01:14:02;7.30;99.90
20881;DHT22;10600;53.096;8.802;2024-01-25T01:15:03;7.30;99.90
20881;DHT22;10600;53.096;8.802;2024-01-25T01:16:04;7.40;99.90
20881;DHT22;10600;53.096;8.802;2024-01-25T01:17:07;7.40;99.90
20881;DHT22;10600;53.096;8.802;2024-01-25T01:18:08;7.40;99.90
20881;DHT22;10600;53.096;8.802;2024-01-25T01:19:08;7.40;99.90
20881;DHT22;10600;53.096;8.802;2024-01-25T01:20:09;7.40;99.90
20881;DHT22;10600;53.096;8.802;2024-01-25T01:21:10;7.50;99.90
20881;DHT22;10600;53.096;8.802;2024-01-25T01:22:11;7.40;99.90
20881;DHT22;10600;53.096;8.802;2024-01-25T01:23:11;7.40;99.90
20881;DHT22;10600;53.096;8.802;2024-01-25T01:24:12;7.50;99.90
20881;DHT22;10600;53.096;8.802;2024-01-25T01:25:13;7.50;99.90
20881;DHT22;10600;53.096;8.802;2024-01-25T01:26:13;7.40;99.90
20881;DHT22;10600;53.096;8.802;2024-01-25T01:27:14;7.50;99.90
20881;DHT22;10600;53.096;8.802;2024-01-25T01:28:14;7.40;99.90
20881;DHT22;10600;53.096;8.802;2024-01-25T01:29:15;7.40;99.90
20881;DHT22;10600;53.096;8.802;2024-01-25T01:30:18;7.40;99.90
20881;DHT22;10600;53.096;8.802;2024-01-25T01:31:18;7.40;99.90
20881;DHT22;10600;53.096;8.802;2024-01-25T01:32:19;7.40;99.90
20881;DHT22;10600;53.096;8.802;2024-01-25T01:33:19;7.40;99.90
20881;DHT22;10600;53.096;8.802;2024-01-25T01:34:20;7.40;99.90
20881;DHT22;10600;53.096;8.802;2024-01-25T01:35:20;7.40;99.90
20881;DHT22;10600;53.096;8.802;2024-01-25T01:36:21;7.30;99.90
20881;DHT22;10600;53.096;8.802;2024-01-25T01:37:22;7.30;99.90
20881;DHT22;10600;53.096;8.802;2024-01-25T01:38:24;7.30;99.90
20881;DHT22;10600;53.096;8.802;2024-01-25T01:39:25;7.30;99.90
20881;DHT22;10600;53.096;8.802;2024-01-25T01:40:26;7.30;99.90
20881;DHT22;10600;53.096;8.802;2024-01-25T01:41:27;7.30;99.90
20881;DHT22;10600;53.096;8.802;2024-01-25T01:42:28;7.30;99.90
20881;DHT22;10600;53.096;8.802;2024-01-25T01:43:28;7.30;99.90
20881;DHT22;10600;53.096;8.802;2024-01-25T01:44:29;7.30;99.90
20881;DHT22;10600;53.096;8.802;2024-01-25T01:45:29;7.20;99.90
20881;DHT22;10600;53.096;8.802;2024-01-25T01:46:37;7.20;99.90
20881;DHT22;10600;53.096;8.802;2024-01-25T01:47:41;7.20;99.90
20881;DHT22;10600;53.096;8.802;2024-01-25T01:48:41;7.20;99.90
20881;DHT22;10600;53.096;8.802;2024-01-25T01:49:42;7.30;99.90
20881;DHT22;10600;53.096;8.802;2024-01-25T01:50:44;7.20;99.90
20881;DHT22;10600;53.096;8.802;2024-01-25T01:51:45;7.20;99.90
20881;DHT22;10600;53.096;8.802;2024-01-25T01:52:47;7.20;99.90
20881;DHT22;10600;53.096;8.802;2024-01-25T01:53:47;7.20;99.90
20881;DHT22;10600;53.096;8.802;2024-01-25T01:54:48;7.20;99.90
20881;DHT22;10600;53.096;8.802;2024-01-25T01:55:49;7.20;99.90
20881;DHT22;10600;53.096;8.802;2024-01-25T01:56:50;7.10;99.90
20881;DHT22;10600;53.096;8.802;2024-01-25T01:57:51;7.20;99.90
20881;DHT22;10600;53.096;8.802;2024-01-25T01:58:52;7.20;99.90
20881;DHT22;10600;53.096;8.802;2024-01-25T01:59:54;7.10;99.90
20881;DHT22;10600;53.096;8.802;2024-01-25T02:00:55;7.10;99.90
20881;DHT22;10600;53.096;8.802;2024-01-25T02:01:57;7.10;99.90
20881;DHT22;10600;53.096;8.802;2024-01-25T02:02:57;7.10;99.90
20881;DHT22;10600;53.096;8.802;2024-01-25T02:04:01;7.20;99.90
20881;DHT22;10600;53.096;8.802;2024-01-25T02:05:01;7.10;99.90
20881;DHT22;10600;53.096;8.802;2024-01-25T02:06:02;7.10;99.90
20881;DHT22;10600;53.096;8.802;2024-01-25T02:07:03;7.20;99.90
20881;DHT22;10600;53.096;8.802;2024-01-25T02:08:05;7.10;99.90
20881;DHT22;10600;53.096;8.802;2024-01-25T02:09:06;7.10;99.90
20881;DHT22;10600;53.096;8.802;2024-01-25T02:10:08;7.20;99.90
20881;DHT22;10600;53.096;8.802;2024-01-25T02:11:12;7.20;99.90
20881;DHT22;10600;53.096;8.802;2024-01-25T02:12:15;7.20;99.90
20881;DHT22;10600;53.096;8.802;2024-01-25T02:13:17;7.20;99.90
20881;DHT22;10600;53.096;8.802;2024-01-25T02:14:18;7.20;99.90
20881;DHT22;10600;53.096;8.802;2024-01-25T02:15:18;7.20;99.90
20881;DHT22;10600;53.096;8.802;2024-01-25T02:16:19;7.10;99.90
20881;DHT22;10600;53.096;8.802;2024-01-25T02:17:20;7.20;99.90
20881;DHT22;10600;53.096;8.802;2024-01-25T02:18:20;7.10;99.90
20881;DHT22;10600;53.096;8.802;2024-01-25T02:19:21;7.20;99.90
20881;DHT22;10600;53.096;8.802;2024-01-25T02:20:22;7.20;99.90
20881;DHT22;10600;53.096;8.802;2024-01-25T02:21:25;7.20;99.90
20881;DHT22;10600;53.096;8.802;2024-01-25T02:22:26;7.20;99.90
20881;DHT22;10600;53.096;8.802;2024-01-25T02:23:26;7.20;99.90
20881;DHT22;10600;53.096;8.802;2024-01-25T02:24:27;7.20;99.90
20881;DHT22;10600;53.096;8.802;2024-01-25T02:25:27;7.20;99.90
20881;DHT22;10600;53.096;8.802;2024-01-25T02:26:28;7.20;99.90
20881;DHT22;10600;53.096;8.802;2024-01-25T02:27:28;7.20;99.90
20881;DHT22;10600;53.096;8.802;2024-01-25T02:28:32;7.20;99.90
20881;DHT22;10600;53.096;8.802;2024-01-25T02:29:32;7.20;99.90
20881;DHT22;10600;53.096;8.802;2024-01-25T02:30:33;7.20;99.90
20881;DHT22;10600;53.096;8.802;2024-01-25T02:31:33;7.20;99.90
20881;DHT22;10600;53.096;8.802;2024-01-25T02:32:37;7.10;99.90
20881;DHT22;10600;53.096;8.802;2024-01-25T02:33:37;7.10;99.90
20881;DHT22;10600;53.096;8.802;2024-01-25T02:34:38;7.10;99.90
20881;DHT22;10600;53.096;8.802;2024-01-25T02:35:38;7.10;99.90
20881;DHT22;10600;53.096;8.802;2024-01-25T02:36:39;7.10;99.90
20881;DHT22;10600;53.096;8.802;2024-01-25T02:37:39;7.10;99.90
20881;DHT22;10600;53.096;8.802;2024-01-25T02:38:43;7.10;99.90
20881;DHT22;10600;53.096;8.802;2024-01-25T02:39:44;7.10;99.90
20881;DHT22;10600;53.096;8.802;2024-01-25T02:40:45;7.00;99.90
20881;DHT22;10600;53.096;8.802;2024-01-25T02:41:46;7.00;99.90
20881;DHT22;10600;53.096;8.802;2024-01-25T02:42:46;7.00;99.90
20881;DHT22;10600;53.096;8.802;2024-01-25T02:43:49;7.00;99.90
20881;DHT22;10600;53.096;8.802;2024-01-25T02:44:49;7.00;99.90
20881;DHT22;10600;53.096;8.802;2024-01-25T02:45:50;7.00;99.90
20881;DHT22;10600;53.096;8.802;2024-01-25T02:46:51;7.00;99.90
20881;DHT22;10600;53.096;8.802;2024-01-25T02:47:51;7.00;99.90
20881;DHT22;10600;53.096;8.802;2024-01-25T02:48:52;7.00;99.90
20881;DHT22;10600;53.096;8.802;2024-01-25T02:49:52;7.00;99.90
20881;DHT22;10600;53.096;8.802;2024-01-25T02:50:53;7.00;99.90
20881;DHT22;10600;53.096;8.802;2024-01-25T02:51:53;7.00;99.90
20881;DHT22;10600;53.096;8.802;2024-01-25T02:52:56;7.00;99.90
20881;DHT22;10600;53.096;8.802;2024-01-25T02:53:57;7.00;99.90
20881;DHT22;10600;53.096;8.802;2024-01-25T02:54:57;7.00;99.90
20881;DHT22;10600;53.096;8.802;2024-01-25T02:55:58;7.00;99.90
20881;DHT22;10600;53.096;8.802;2024-01-25T02:56:58;7.00;99.90
20881;DHT22;10600;53.096;8.802;2024-01-25T02:57:59;6.90;99.90
20881;DHT22;10600;53.096;8.802;2024-01-25T02:59:02;6.90;99.90
20881;DHT22;10600;53.096;8.802;2024-01-25T03:00:03;6.90;99.90
20881;DHT22;10600;53.096;8.802;2024-01-25T03:01:04;6.90;99.90
20881;DHT22;10600;53.096;8.802;2024-01-25T03:02:05;6.90;99.90
20881;DHT22;10600;53.096;8.802;2024-01-25T03:03:09;6.90;99.90
20881;DHT22;10600;53.096;8.802;2024-01-25T03:04:09;6.90;99.90
20881;DHT22;10600;53.096;8.802;2024-01-25T03:05:10;6.90;99.90
20881;DHT22;10600;53.096;8.802;2024-01-25T03:06:10;6.90;99.90
20881;DHT22;10600;53.096;8.802;2024-01-25T03:07:11;6.90;99.90
20881;DHT22;10600;53.096;8.802;2024-01-25T03:08:11;6.90;99.90
20881;DHT22;10600;53.096;8.802;2024-01-25T03:09:15;6.90;99.90
20881;DHT22;10600;53.096;8.802;2024-01-25T03:10:16;6.90;99.90
20881;DHT22;10600;53.096;8.802;2024-01-25T03:11:16;6.90;99.90
20881;DHT22;10600;53.096;8.802;2024-01-25T03:12:17;6.90;99.90
20881;DHT22;10600;53.096;8.802;2024-01-25T03:13:17;6.90;99.90
20881;DHT22;10600;53.096;8.802;2024-01-25T03:14:20;6.90;99.90
20881;DHT22;10600;53.096;8.802;2024-01-25T03:15:21;6.90;99.90
20881;DHT22;10600;53.096;8.802;2024-01-25T03:16:21;6.90;99.90
20881;DHT22;10600;53.096;8.802;2024-01-25T03:17:22;6.90;99.90
20881;DHT22;10600;53.096;8.802;2024-01-25T03:18:22;6.90;99.90
20881;DHT22;10600;53.096;8.802;2024-01-25T03:19:27;6.90;99.90
20881;DHT22;10600;53.096;8.802;2024-01-25T03:20:27;6.90;99.90
20881;DHT22;10600;53.096;8.802;2024-01-25T03:21:28;6.90;99.90
20881;DHT22;10600;53.096;8.802;2024-01-25T03:22:29;6.80;99.90
20881;DHT22;10600;53.096;8.802;2024-01-25T03:23:30;6.90;99.90
20881;DHT22;10600;53.096;8.802;2024-01-25T03:24:33;6.80;99.90
20881;DHT22;10600;53.096;8.802;2024-01-25T03:25:37;6.80;99.90
20881;DHT22;10600;53.096;8.802;2024-01-25T03:26:37;6.80;99.90
20881;DHT22;10600;53.096;8.802;2024-01-25T03:27:38;6.80;99.90
20881;DHT22;10600;53.096;8.802;2024-01-25T03:28:39;6.80;99.90
20881;DHT22;10600;53.096;8.802;2024-01-25T03:29:43;6.80;99.90
20881;DHT22;10600;53.096;8.802;2024-01-25T03:30:44;6.80;99.90
20881;DHT22;10600;53.096;8.802;2024-01-25T03:31:45;6.80;99.90
20881;DHT22;10600;53.096;8.802;2024-01-25T03:32:46;6.80;99.90
20881;DHT22;10600;53.096;8.802;2024-01-25T03:33:47;6.70;99.90
20881;DHT22;10600;53.096;8.802;2024-01-25T03:34:50;6.70;99.90
20881;DHT22;10600;53.096;8.802;2024-01-25T03:35:52;6.70;99.90
20881;DHT22;10600;53.096;8.802;2024-01-25T03:36:52;6.70;99.90
20881;DHT22;10600;53.096;8.802;2024-01-25T03:37:54;6.70;99.90
20881;DHT22;10600;53.096;8.802;2024-01-25T03:38:55;6.70;99.90
20881;DHT22;10600;53.096;8.802;2024-01-25T03:39:55;6.70;99.90
20881;DHT22;10600;53.096;8.802;2024-01-25T03:40:56;6.70;99.90
20881;DHT22;10600;53.096;8.802;2024-01-25T03:41:58;6.70;99.90
20881;DHT22;10600;53.096;8.802;2024-01-25T03:42:59;6.70;99.90
20881;DHT22;10600;53.096;8.802;2024-01-25T03:43:59;6.70;99.90
20881;DHT22;10600;53.096;8.802;2024-01-25T03:45:00;6.70;99.90
20881;DHT22;10600;53.096;8.802;2024-01-25T03:46:00;6.70;99.90
20881;DHT22;10600;53.096;8.802;2024-01-25T03:47:01;6.70;99.90
20881;DHT22;10600;53.096;8.802;2024-01-25T03:48:02;6.70;99.90
20881;DHT22;10600;53.096;8.802;2024-01-25T03:49:02;6.70;99.90
20881;DHT22;10600;53.096;8.802;2024-01-25T03:50:04;6.70;99.90
20881;DHT22;10600;53.096;8.802;2024-01-25T03:51:05;6.70;99.90
20881;DHT22;10600;53.096;8.802;2024-01-25T03:52:06;6.70;99.90
20881;DHT22;10600;53.096;8.802;2024-01-25T03:53:07;6.70;99.90
20881;DHT22;10600;53.096;8.802;2024-01-25T03:54:07;6.70;99.90
20881;DHT22;10600;53.096;8.802;2024-01-25T03:55:08;6.70;99.90
20881;DHT22;10600;53.096;8.802;2024-01-25T03:56:12;6.60;99.90
20881;DHT22;10600;53.096;8.802;2024-01-25T03:57:23;6.60;99.90
20881;DHT22;10600;53.096;8.802;2024-01-25T03:58:23;6.60;99.90
20881;DHT22;10600;53.096;8.802;2024-01-25T03:59:24;6.60;99.90
20881;DHT22;10600;53.096;8.802;2024-01-25T04:00:24;6.60;99.90
20881;DHT22;10600;53.096;8.802;2024-01-25T04:01:25;6.70;99.90
20881;DHT22;10600;53.096;8.802;2024-01-25T04:02:25;6.70;99.90
20881;DHT22;10600;53.096;8.802;2024-01-25T04:03:32;6.60;99.90
20881;DHT22;10600;53.096;8.802;2024-01-25T04:04:32;6.70;99.90
20881;DHT22;10600;53.096;8.802;2024-01-25T04:05:33;6.70;99.90
20881;DHT22;10600;53.096;8.802;2024-01-25T04:06:33;6.70;99.90
20881;DHT22;10600;53.096;8.802;2024-01-25T04:07:38;6.70;99.90
20881;DHT22;10600;53.096;8.802;2024-01-25T04:08:38;6.70;99.90
20881;DHT22;10600;53.096;8.802;2024-01-25T04:09:39;6.70;99.90
20881;DHT22;10600;53.096;8.802;2024-01-25T04:10:40;6.70;99.90
20881;DHT22;10600;53.096;8.802;2024-01-25T04:11:41;6.70;99.90
20881;DHT22;10600;53.096;8.802;2024-01-25T04:12:41;6.70;99.90
20881;DHT22;10600;53.096;8.802;2024-01-25T04:13:42;6.70;99.90
20881;DHT22;10600;53.096;8.802;2024-01-25T04:14:44;6.80;99.90
20881;DHT22;10600;53.096;8.802;2024-01-25T04:15:44;6.80;99.90
20881;DHT22;10600;53.096;8.802;2024-01-25T04:16:46;6.70;99.90
20881;DHT22;10600;53.096;8.802;2024-01-25T04:17:47;6.80;99.90
20881;DHT22;10600;53.096;8.802;2024-01-25T04:18:47;6.80;99.90
20881;DHT22;10600;53.096;8.802;2024-01-25T04:19:54;6.80;99.90
20881;DHT22;10600;53.096;8.802;2024-01-25T04:20:54;6.80;99.90
20881;DHT22;10600;53.096;8.802;2024-01-25T04:21:57;6.80;99.90
20881;DHT22;10600;53.096;8.802;2024-01-25T04:22:58;6.80;99.90
20881;DHT22;10600;53.096;8.802;2024-01-25T04:23:59;6.70;99.90
20881;DHT22;10600;53.096;8.802;2024-01-25T04:24:59;6.80;99.90
20881;DHT22;10600;53.096;8.802;2024-01-25T04:26:00;6.70;99.90
20881;DHT22;10600;53.096;8.802;2024-01-25T04:27:00;6.70;99.90
20881;DHT22;10600;53.096;8.802;2024-01-25T04:28:01;6.80;99.90
20881;DHT22;10600;53.096;8.802;2024-01-25T04:29:02;6.80;99.90
20881;DHT22;10600;53.096;8.802;2024-01-25T04:30:03;6.80;99.90
20881;DHT22;10600;53.096;8.802;2024-01-25T04:31:04;6.80;99.90
20881;DHT22;10600;53.096;8.802;2024-01-25T04:32:05;6.80;99.90
20881;DHT22;10600;53.096;8.802;2024-01-25T04:33:06;6.80;99.90
20881;DHT22;10600;53.096;8.802;2024-01-25T04:34:06;6.80;99.90
20881;DHT22;10600;53.096;8.802;2024-01-25T04:35:10;6.80;99.90
20881;DHT22;10600;53.096;8.802;2024-01-25T04:36:10;6.80;99.90
20881;DHT22;10600;53.096;8.802;2024-01-25T04:37:11;6.80;99.90
20881;DHT22;10600;53.096;8.802;2024-01-25T04:38:11;6.80;99.90
20881;DHT22;10600;53.096;8.802;2024-01-25T04:39:12;6.80;99.90
20881;DHT22;10600;53.096;8.802;2024-01-25T04:40:15;6.80;99.90
20881;DHT22;10600;53.096;8.802;2024-01-25T04:41:15;6.80;99.90
20881;DHT22;10600;53.096;8.802;2024-01-25T04:42:16;6.80;99.90
20881;DHT22;10600;53.096;8.802;2024-01-25T04:43:19;6.80;99.90
20881;DHT22;10600;53.096;8.802;2024-01-25T04:44:20;6.70;99.90
20881;DHT22;10600;53.096;8.802;2024-01-25T04:45:20;6.70;99.90
20881;DHT22;10600;53.096;8.802;2024-01-25T04:46:21;6.70;99.90
20881;DHT22;10600;53.096;8.802;2024-01-25T04:47:23;6.70;99.90
20881;DHT22;10600;53.096;8.802;2024-01-25T04:48:23;6.70;99.90
20881;DHT22;10600;53.096;8.802;2024-01-25T04:49:24;6.70;99.90
20881;DHT22;10600;53.096;8.802;2024-01-25T04:50:24;6.70;99.90
20881;DHT22;10600;53.096;8.802;2024-01-25T04:51:25;6.70;99.90
20881;DHT22;10600;53.096;8.802;2024-01-25T04:52:25;6.70;99.90
20881;DHT22;10600;53.096;8.802;2024-01-25T04:53:26;6.70;99.90
20881;DHT22;10600;53.096;8.802;2024-01-25T04:54:26;6.70;99.90
20881;DHT22;10600;53.096;8.802;2024-01-25T04:55:27;6.70;99.90
20881;DHT22;10600;53.096;8.802;2024-01-25T04:56:28;6.70;99.90
20881;DHT22;10600;53.096;8.802;2024-01-25T04:57:29;6.70;99.90
20881;DHT22;10600;53.096;8.802;2024-01-25T04:58:30;6.70;99.90
20881;DHT22;10600;53.096;8.802;2024-01-25T04:59:30;6.70;99.90
20881;DHT22;10600;53.096;8.802;2024-01-25T05:00:31;6.70;99.90
20881;DHT22;10600;53.096;8.802;2024-01-25T05:01:31;6.70;99.90
20881;DHT22;10600;53.096;8.802;2024-01-25T05:02:32;6.70;99.90
20881;DHT22;10600;53.096;8.802;2024-01-25T05:03:33;6.70;99.90
20881;DHT22;10600;53.096;8.802;2024-01-25T05:04:34;6.70;99.90
20881;DHT22;10600;53.096;8.802;2024-01-25T05:05:35;6.70;99.90
20881;DHT22;10600;53.096;8.802;2024-01-25T05:06:36;6.70;99.90
20881;DHT22;10600;53.096;8.802;2024-01-25T05:07:37;6.60;99.90
20881;DHT22;10600;53.096;8.802;2024-01-25T05:08:38;6.60;99.90
20881;DHT22;10600;53.096;8.802;2024-01-25T05:09:39;6.60;99.90
20881;DHT22;10600;53.096;8.802;2024-01-25T05:10:39;6.60;99.90
20881;DHT22;10600;53.096;8.802;2024-01-25T05:11:43;6.60;99.90
20881;DHT22;10600;53.096;8.802;2024-01-25T05:12:43;6.60;99.90
20881;DHT22;10600;53.096;8.802;2024-01-25T05:13:44;6.60;99.90
20881;DHT22;10600;53.096;8.802;2024-01-25T05:14:44;6.60;99.90
20881;DHT22;10600;53.096;8.802;2024-01-25T05:15:45;6.60;99.90
20881;DHT22;10600;53.096;8.802;2024-01-25T05:16:45;6.60;99.90
20881;DHT22;10600;53.096;8.802;2024-01-25T05:17:46;6.60;99.90
20881;DHT22;10600;53.096;8.802;2024-01-25T05:18:46;6.60;99.90
20881;DHT22;10600;53.096;8.802;2024-01-25T05:19:47;6.60;99.90
20881;DHT22;10600;53.096;8.802;2024-01-25T05:20:47;6.60;99.90
20881;DHT22;10600;53.096;8.802;2024-01-25T05:21:48;6.60;99.90
20881;DHT22;10600;53.096;8.802;2024-01-25T05:22:48;6.60;99.90
20881;DHT22;10600;53.096;8.802;2024-01-25T05:23:49;6.60;99.90
20881;DHT22;10600;53.096;8.802;2024-01-25T05:24:50;6.60;99.90
20881;DHT22;10600;53.096;8.802;2024-01-25T05:25:50;6.60;99.90
20881;DHT22;10600;53.096;8.802;2024-01-25T05:26:51;6.60;99.90
20881;DHT22;10600;53.096;8.802;2024-01-25T05:27:55;6.60;99.90
20881;DHT22;10600;53.096;8.802;2024-01-25T05:28:56;6.60;99.90
20881;DHT22;10600;53.096;8.802;2024-01-25T05:29:56;6.60;99.90
20881;DHT22;10600;53.096;8.802;2024-01-25T05:30:57;6.60;99.90
20881;DHT22;10600;53.096;8.802;2024-01-25T05:31:59;6.60;99.90
20881;DHT22;10600;53.096;8.802;2024-01-25T05:32:59;6.60;99.90
20881;DHT22;10600;53.096;8.802;2024-01-25T05:34:01;6.50;99.90
20881;DHT22;10600;53.096;8.802;2024-01-25T05:35:01;6.50;99.90
20881;DHT22;10600;53.096;8.802;2024-01-25T05:36:02;6.50;99.90
20881;DHT22;10600;53.096;8.802;2024-01-25T05:37:03;6.60;99.90
20881;DHT22;10600;53.096;8.802;2024-01-25T05:38:03;6.60;99.90
20881;DHT22;10600;53.096;8.802;2024-01-25T05:39:04;6.60;99.90
20881;DHT22;10600;53.096;8.802;2024-01-25T05:40:07;6.60;99.90
20881;DHT22;10600;53.096;8.802;2024-01-25T05:41:07;6.60;99.90
20881;DHT22;10600;53.096;8.802;2024-01-25T05:42:08;6.60;99.90
20881;DHT22;10600;53.096;8.802;2024-01-25T05:43:09;6.60;99.90
20881;DHT22;10600;53.096;8.802;2024-01-25T05:44:09;6.70;99.90
20881;DHT22;10600;53.096;8.802;2024-01-25T05:45:12;6.60;99.90
20881;DHT22;10600;53.096;8.802;2024-01-25T05:46:13;6.70;99.90
20881;DHT22;10600;53.096;8.802;2024-01-25T05:47:14;6.70;99.90
20881;DHT22;10600;53.096;8.802;2024-01-25T05:48:15;6.70;99.90
20881;DHT22;10600;53.096;8.802;2024-01-25T05:49:15;6.70;99.90
20881;DHT22;10600;53.096;8.802;2024-01-25T05:50:16;6.70;99.90
20881;DHT22;10600;53.096;8.802;2024-01-25T05:51:20;6.70;99.90
20881;DHT22;10600;53.096;8.802;2024-01-25T05:52:20;6.70;99.90
20881;DHT22;10600;53.096;8.802;2024-01-25T05:53:22;6.70;99.90
20881;DHT22;10600;53.096;8.802;2024-01-25T05:54:22;6.70;99.90
20881;DHT22;10600;53.096;8.802;2024-01-25T05:55:23;6.70;99.90
20881;DHT22;10600;53.096;8.802;2024-01-25T05:56:23;6.70;99.90
20881;DHT22;10600;53.096;8.802;2024-01-25T05:57:25;6.70;99.90
20881;DHT22;10600;53.096;8.802;2024-01-25T05:58:26;6.70;99.90
20881;DHT22;10600;53.096;8.802;2024-01-25T05:59:27;6.70;99.90
20881;DHT22;10600;53.096;8.802;2024-01-25T06:00:27;6.70;99.90
20881;DHT22;10600;53.096;8.802;2024-01-25T06:01:28;6.70;99.90
20881;DHT22;10600;53.096;8.802;2024-01-25T06:02:29;6.70;99.90
20881;DHT22;10600;53.096;8.802;2024-01-25T06:03:30;6.70;99.90
20881;DHT22;10600;53.096;8.802;2024-01-25T06:04:30;6.70;99.90
20881;DHT22;10600;53.096;8.802;2024-01-25T06:05:31;6.70;99.90
20881;DHT22;10600;53.096;8.802;2024-01-25T06:06:31;6.70;99.90
20881;DHT22;10600;53.096;8.802;2024-01-25T06:07:32;6.70;99.90
20881;DHT22;10600;53.096;8.802;2024-01-25T06:08:32;6.70;99.90
20881;DHT22;10600;53.096;8.802;2024-01-25T06:09:33;6.70;99.90
20881;DHT22;10600;53.096;8.802;2024-01-25T06:10:33;6.70;99.90
20881;DHT22;10600;53.096;8.802;2024-01-25T06:11:34;6.70;99.90
20881;DHT22;10600;53.096;8.802;2024-01-25T06:12:36;6.70;99.90
20881;DHT22;10600;53.096;8.802;2024-01-25T06:13:36;6.70;99.90
20881;DHT22;10600;53.096;8.802;2024-01-25T06:14:37;6.70;99.90
20881;DHT22;10600;53.096;8.802;2024-01-25T06:15:38;6.70;99.90
20881;DHT22;10600;53.096;8.802;2024-01-25T06:16:39;6.70;99.90
20881;DHT22;10600;53.096;8.802;2024-01-25T06:17:39;6.70;99.90
20881;DHT22;10600;53.096;8.802;2024-01-25T06:18:40;6.70;99.90
20881;DHT22;10600;53.096;8.802;2024-01-25T06:19:40;6.70;99.90
20881;DHT22;10600;53.096;8.802;2024-01-25T06:20:41;6.70;99.90
20881;DHT22;10600;53.096;8.802;2024-01-25T06:21:41;6.70;99.90
20881;DHT22;10600;53.096;8.802;2024-01-25T06:22:42;6.60;99.90
20881;DHT22;10600;53.096;8.802;2024-01-25T06:23:42;6.60;99.90
20881;DHT22;10600;53.096;8.802;2024-01-25T06:24:43;6.60;99.90
20881;DHT22;10600;53.096;8.802;2024-01-25T06:25:44;6.60;99.90
20881;DHT22;10600;53.096;8.802;2024-01-25T06:26:44;6.60;99.90
20881;DHT22;10600;53.096;8.802;2024-01-25T06:27:45;6.60;99.90
20881;DHT22;10600;53.096;8.802;2024-01-25T06:28:45;6.60;99.90
20881;DHT22;10600;53.096;8.802;2024-01-25T06:29:46;6.60;99.90
20881;DHT22;10600;53.096;8.802;2024-01-25T06:30:47;6.60;99.90
20881;DHT22;10600;53.096;8.802;2024-01-25T06:31:47;6.60;99.90